MV Nord Discovery — 3EGP — position and weather

sailwx.info

Track history (hours):
 
Tides and Currents Weather Stations Pressure Air Temp Water Temp Dewpoint Dewpoint Depression Visibility Wind Speed Wind Dir Waves Ship Positions

MV Nord Discovery

Last reported at 2016-Sep-27 00:12 UTC. Time now 2016-Sep-27 05:26 UTC.
Position N 08°51' W 079°31'.

Length 183 m; draft 12 m.

Type: Cargo ship. MMSI: 354855000.

Date/timePositionNaut miles runAvg speedWind from/ knotsBaromVisibWave heightAir tempDewpointWater temp
2016-Sep-27 00:12N 08°51' W 079°31'9 2.4
2016-Sep-26 20:33N 08°59' W 079°35'0 0.4
2016-Sep-26 19:30N 08°59' W 079°36'19 4.9
2016-Sep-26 15:32N 09°11' W 079°51'6 2.8
2016-Sep-26 13:33N 09°15' W 079°55'1 0.7
2016-Sep-26 11:33N 09°16' W 079°55'4 1.3
2016-Sep-26 08:34N 09°20' W 079°55'8 1.2
2016-Sep-26 02:13N 09°28' W 079°56'0 0.0
2016-Sep-26 01:28N 09°28' W 079°56'0 0.0
2016-Sep-26 00:25N 09°28' W 079°56'0 0.0
2016-Sep-25 21:31N 09°28' W 079°56'0 0.0
2016-Sep-25 17:25N 09°28' W 079°56'0 0.0
2016-Sep-25 16:31N 09°28' W 079°56'0 0.0
2016-Sep-25 15:33N 09°28' W 079°56'0 0.0
2016-Sep-25 14:32N 09°28' W 079°56'0 0.0
2016-Sep-25 12:32N 09°28' W 079°56'0 0.0
2016-Sep-25 11:29N 09°28' W 079°56'0 0.0
2016-Sep-25 10:31N 09°28' W 079°56'0 0.0
2016-Sep-25 09:33N 09°28' W 079°56'0 0.0
2016-Sep-25 07:31N 09°28' W 079°56'0 0.0
2016-Sep-25 04:28N 09°28' W 079°56'  
2016-Sep-19 18:24N 29°56' W 089°59'8 3.8
2016-Sep-19 16:19N 29°56' W 090°09'0 0.0
2016-Sep-18 19:33N 29°56' W 090°09'0 0.0
2016-Sep-18 15:27N 29°56' W 090°09'0 0.0
2016-Sep-18 14:21N 29°56' W 090°09'0 0.0
2016-Sep-18 10:33N 29°56' W 090°09'0 0.0
2016-Sep-18 09:33N 29°56' W 090°09'  
Track history (hours):
 
Tides and Currents Weather Stations Pressure Air Temp Water Temp Dewpoint Dewpoint Depression Visibility Wind Speed Wind Dir Waves Ship Positions

MV Nord Discovery

Last reported at 2016-Sep-27 00:12 UTC. Time now 2016-Sep-27 05:26 UTC.
Position N 08°51' W 079°31'.

Length 183 m; draft 12 m.

Type: Cargo ship. MMSI: 354855000.

Date/timePositionNaut miles runAvg speedWind from/ knotsBaromVisibWave heightAir tempDewpointWater temp
2016-Sep-27 00:12N 08°51' W 079°31'9 2.4
2016-Sep-26 20:33N 08°59' W 079°35'0 0.4
2016-Sep-26 19:30N 08°59' W 079°36'19 4.9
2016-Sep-26 15:32N 09°11' W 079°51'6 2.8
2016-Sep-26 13:33N 09°15' W 079°55'1 0.7
2016-Sep-26 11:33N 09°16' W 079°55'4 1.3
2016-Sep-26 08:34N 09°20' W 079°55'8 1.2
2016-Sep-26 02:13N 09°28' W 079°56'0 0.0
2016-Sep-26 01:28N 09°28' W 079°56'0 0.0
2016-Sep-26 00:25N 09°28' W 079°56'0 0.0
2016-Sep-25 21:31N 09°28' W 079°56'0 0.0
2016-Sep-25 17:25N 09°28' W 079°56'0 0.0
2016-Sep-25 16:31N 09°28' W 079°56'0 0.0
2016-Sep-25 15:33N 09°28' W 079°56'0 0.0
2016-Sep-25 14:32N 09°28' W 079°56'0 0.0
2016-Sep-25 12:32N 09°28' W 079°56'0 0.0
2016-Sep-25 11:29N 09°28' W 079°56'0 0.0
2016-Sep-25 10:31N 09°28' W 079°56'0 0.0
2016-Sep-25 09:33N 09°28' W 079°56'0 0.0
2016-Sep-25 07:31N 09°28' W 079°56'0 0.0
2016-Sep-25 04:28N 09°28' W 079°56'  
2016-Sep-19 18:24N 29°56' W 089°59'8 3.8
2016-Sep-19 16:19N 29°56' W 090°09'0 0.0
2016-Sep-18 19:33N 29°56' W 090°09'0 0.0
2016-Sep-18 15:27N 29°56' W 090°09'0 0.0
2016-Sep-18 14:21N 29°56' W 090°09'0 0.0
2016-Sep-18 10:33N 29°56' W 090°09'0 0.0
2016-Sep-18 09:33N 29°56' W 090°09'  

Dump ship's entire track history